Brechin, United Kingdom
Current Conditions -  °F | °C
As of 8:20 AM on Thursday 27 Nov 2014 (Local Time) from EGPN Reporting Station
Moderate Rain Moderate Rain  
Wind Chill: 44°   Ceiling: 1800
Heat Index: 46°   Visibility: 6mi
Dew Point: 45°   Wind: 6mph
Humidity: 93%   Direction: 60°ENE
Pressure: 29.65"   Gusts: NA
Location:  56.73°N, 2.66°W
Report Text: EGPN 270820Z 06005KT 9999 RADZ SCT007 BKN018 BKN023 08/07 Q1004
Loading
Personal Weather Stations






























Interactive Weather Map New forecast layout! Learn more

10-Day Weather Forecast

Advertisements
Track Severe Weather on mobile